This is the latest recevied weather packets stored in our database for station/object AD8PA-13. If no packets are shown the sender has not sent any weather packets the latest 10 day(s).
| Time | Temp. | Humidity | Pressure | Rain* | Wind** | Luminosity | Snow |
|---|---|---|---|---|---|---|---|
| 1777655778 | 8.33° C | 61% | 1014.3 hPa | 0 mm | - | - | - |
| 1777654875 | 8.89° C | 59% | 1014 hPa | 0 mm | - | - | - |
| 1777653974 | 8.89° C | 58% | 1014.3 hPa | 0 mm | - | - | - |
| 1777653070 | 8.33° C | 60% | 1014.3 hPa | 0 mm | - | - | - |
| 1777652166 | 9.44° C | 60% | 1014.2 hPa | 0 mm | - | - | - |
| 1777651262 | 9.44° C | 67% | 1014.3 hPa | 0 mm | - | - | - |
| 1777650359 | 9.44° C | 66% | 1014.1 hPa | 0 mm | - | - | - |
| 1777649456 | 7.78° C | 78% | 1014.5 hPa | 0 mm | - | - | - |
| 1777648552 | 7.78° C | 77% | 1014.5 hPa | 0 mm | - | - | - |
| 1777647653 | 7.78° C | 82% | 1014.3 hPa | 0 mm | - | - | - |
| 1777646749 | 6.11° C | 86% | 1014.6 hPa | 0 mm | - | - | - |
| 1777645844 | 5.56° C | 89% | 1014.5 hPa | 0 mm | - | - | - |
| 1777644938 | 5° C | 91% | 1014.4 hPa | 0 mm | - | - | - |
| 1777644034 | 4.44° C | 89% | 1014.5 hPa | 1.78 mm | - | - | - |
| 1777643131 | 6.11° C | 83% | 1014.4 hPa | 0 mm | - | - | - |
| 1777642226 | 6.11° C | 79% | 1014.3 hPa | 0 mm | - | - | - |
| 1777641326 | 6.67° C | 79% | 1014.2 hPa | 0 mm | - | - | - |
| 1777640421 | 6.11° C | 78% | 1014 hPa | 0 mm | - | - | - |
| 1777639518 | 6.11° C | 78% | 1014.2 hPa | 0 mm | - | - | - |
| 1777638612 | 6.11° C | 80% | 1014 hPa | 0 mm | - | - | - |
| 1777637708 | 6.11° C | 85% | 1013.8 hPa | 0 mm | - | - | - |
| 1777636803 | 5.56° C | 85% | 1013.8 hPa | 0 mm | - | - | - |
| 1777635902 | 5.56° C | 85% | 1013.9 hPa | 0 mm | - | - | - |
| 1777634998 | 5.56° C | 82% | 1014 hPa | 0 mm | - | - | - |
| 1777634095 | 5° C | 84% | 1014.1 hPa | 0 mm | - | - | - |
* Rain latest hour (hover to see other rain measurements)
** Current wind speed in m/s (hover to see current wind gust speed)